createdAt,value
2018-06-27T00:00:34.206Z,63.20
2018-06-27T00:02:36.165Z,63.30
2018-06-27T00:04:38.146Z,63.30
2018-06-27T00:06:40.096Z,63.30
2018-06-27T00:08:42.038Z,63.40
2018-06-27T00:10:44.002Z,63.30
2018-06-27T00:12:45.959Z,63.20
2018-06-27T00:14:47.934Z,63.50
2018-06-27T00:16:49.889Z,63.40
2018-06-27T00:18:51.825Z,63.30
2018-06-27T00:20:53.878Z,63.40
2018-06-27T00:22:55.842Z,63.30
2018-06-27T00:24:57.813Z,63.30
2018-06-27T00:26:59.765Z,63.30
2018-06-27T00:29:01.726Z,63.50
2018-06-27T00:31:03.693Z,63.30
2018-06-27T00:35:07.877Z,63.30
2018-06-27T00:37:09.825Z,63.30
2018-06-27T00:39:11.791Z,63.30
2018-06-27T00:41:13.756Z,63.50
2018-06-27T00:43:15.723Z,64.30
2018-06-27T00:45:17.680Z,63.30
2018-06-27T00:47:19.644Z,63.40
2018-06-27T00:49:21.608Z,63.30
2018-06-27T00:51:23.570Z,63.40
2018-06-27T00:53:25.523Z,63.30
2018-06-27T00:55:27.496Z,63.30
2018-06-27T00:57:29.451Z,63.30
2018-06-27T00:59:31.413Z,63.40
2018-06-27T01:01:33.403Z,63.30
2018-06-27T01:03:35.363Z,63.40
2018-06-27T01:05:37.318Z,63.30
2018-06-27T01:07:39.274Z,63.30
2018-06-27T01:09:41.233Z,63.40
2018-06-27T01:11:43.180Z,63.50
2018-06-27T01:13:45.156Z,63.40
2018-06-27T01:15:47.106Z,62.60
2018-06-27T01:17:49.051Z,63.30
2018-06-27T01:19:51.015Z,63.30
2018-06-27T01:21:52.979Z,63.30
2018-06-27T01:23:54.975Z,63.40
2018-06-27T01:25:56.929Z,63.30
2018-06-27T01:27:58.898Z,63.30
2018-06-27T01:30:00.894Z,63.30
2018-06-27T01:32:02.857Z,63.30
2018-06-27T01:34:04.810Z,63.40
2018-06-27T01:36:06.773Z,63.40
2018-06-27T01:38:08.724Z,63.30
2018-06-27T01:40:10.695Z,63.40
2018-06-27T01:42:12.656Z,63.40
2018-06-27T01:44:14.613Z,63.30
2018-06-27T01:46:16.578Z,63.40
2018-06-27T01:48:18.542Z,63.30
2018-06-27T01:50:20.512Z,63.40
2018-06-27T01:52:22.440Z,63.30
2018-06-27T01:54:24.408Z,63.30
2018-06-27T01:56:26.397Z,63.30
2018-06-27T01:58:28.340Z,63.20
2018-06-27T02:00:30.320Z,63.30
2018-06-27T02:04:34.527Z,64.00
2018-06-27T02:06:36.492Z,63.30
2018-06-27T02:08:38.450Z,63.30
2018-06-27T02:10:40.414Z,63.30
2018-06-27T02:12:42.385Z,63.30
2018-06-27T02:14:44.323Z,63.30
2018-06-27T02:16:46.274Z,63.30
2018-06-27T02:18:48.222Z,63.30
2018-06-27T02:20:50.200Z,63.30
2018-06-27T02:22:52.154Z,63.20
2018-06-27T02:24:54.100Z,63.30
2018-06-27T02:28:58.291Z,63.30
2018-06-27T02:31:00.275Z,63.30
2018-06-27T02:33:02.311Z,63.30
2018-06-27T02:35:04.203Z,63.30
2018-06-27T02:37:06.174Z,63.30
2018-06-27T02:39:08.125Z,63.20
2018-06-27T02:41:10.094Z,63.20
2018-06-27T02:43:12.034Z,63.30
2018-06-27T02:45:14.004Z,63.10
2018-06-27T02:47:15.956Z,63.50
2018-06-27T02:49:17.924Z,63.10
2018-06-27T02:51:19.878Z,63.20
2018-06-27T02:53:21.840Z,63.20
2018-06-27T02:55:23.798Z,63.20
2018-06-27T02:57:25.762Z,63.20
2018-06-27T02:59:27.719Z,63.20
2018-06-27T03:01:29.696Z,63.30
2018-06-27T03:03:31.660Z,63.10
2018-06-27T03:05:33.632Z,63.20
2018-06-27T03:07:35.593Z,63.20
2018-06-27T03:09:37.543Z,63.20
2018-06-27T03:11:39.501Z,63.20
2018-06-27T03:13:41.453Z,63.30
2018-06-27T03:15:43.428Z,63.20
2018-06-27T03:17:45.400Z,63.30
2018-06-27T03:19:47.366Z,64.20
2018-06-27T03:21:49.336Z,63.30
2018-06-27T03:23:51.313Z,63.30
2018-06-27T03:25:53.282Z,63.30
2018-06-27T03:27:55.226Z,63.30
2018-06-27T03:29:57.210Z,63.20
2018-06-27T03:31:59.181Z,63.30
2018-06-27T03:34:01.128Z,63.30
2018-06-27T03:36:03.076Z,63.30
2018-06-27T03:38:05.072Z,63.20
2018-06-27T03:40:07.030Z,63.20
2018-06-27T03:42:09.000Z,63.30
2018-06-27T03:44:10.945Z,63.20
2018-06-27T03:46:12.902Z,63.20
2018-06-27T03:48:14.940Z,63.30
2018-06-27T03:50:16.892Z,63.30
2018-06-27T03:52:18.862Z,63.30
2018-06-27T03:54:20.824Z,63.10
2018-06-27T03:56:22.776Z,63.30
2018-06-27T03:58:24.744Z,63.20
2018-06-27T04:00:26.704Z,64.10
2018-06-27T04:02:28.662Z,63.30
2018-06-27T04:04:30.640Z,63.30
2018-06-27T04:06:32.596Z,63.30
2018-06-27T04:08:34.555Z,63.20
2018-06-27T04:10:36.510Z,63.30
2018-06-27T04:12:38.494Z,63.20
2018-06-27T04:14:40.521Z,63.20
2018-06-27T04:16:42.377Z,63.30
2018-06-27T04:18:44.338Z,63.30
2018-06-27T04:20:46.298Z,63.30
2018-06-27T04:22:48.260Z,63.30
2018-06-27T04:24:50.218Z,63.20
2018-06-27T04:26:52.190Z,63.20
2018-06-27T04:30:56.357Z,63.20
2018-06-27T04:32:58.325Z,63.20
2018-06-27T04:35:00.292Z,63.20
2018-06-27T04:37:02.246Z,63.10
2018-06-27T04:39:04.208Z,63.10
2018-06-27T04:41:06.176Z,63.10
2018-06-27T04:43:08.192Z,63.10
2018-06-27T04:45:10.101Z,63.10
2018-06-27T04:47:12.067Z,63.10
2018-06-27T04:49:14.025Z,63.10
2018-06-27T04:51:15.980Z,63.20
2018-06-27T04:53:17.947Z,63.10
2018-06-27T04:55:19.915Z,63.30
2018-06-27T04:57:21.867Z,63.30
2018-06-27T04:59:23.831Z,63.30
2018-06-27T05:01:25.787Z,63.30
2018-06-27T05:03:27.739Z,63.10
2018-06-27T05:07:32.008Z,63.10
2018-06-27T05:09:33.915Z,63.10
2018-06-27T05:11:35.894Z,63.30
2018-06-27T05:13:37.812Z,63.10
2018-06-27T05:15:39.789Z,63.10
2018-06-27T05:17:41.766Z,63.00
2018-06-27T05:19:43.764Z,63.00
2018-06-27T05:21:45.761Z,63.00
2018-06-27T05:23:47.667Z,63.00
2018-06-27T05:25:49.645Z,63.00
2018-06-27T05:27:51.584Z,63.00
2018-06-27T05:29:53.541Z,63.00
2018-06-27T05:31:55.500Z,63.00
2018-06-27T05:33:57.513Z,63.00
2018-06-27T05:35:59.411Z,63.00
2018-06-27T05:38:01.377Z,63.00
2018-06-27T05:40:03.340Z,63.00
2018-06-27T05:42:05.293Z,62.90
2018-06-27T05:44:07.249Z,62.90
2018-06-27T05:46:09.233Z,62.90
2018-06-27T05:48:11.185Z,62.90
2018-06-27T05:50:13.163Z,62.90
2018-06-27T05:52:15.116Z,62.90
2018-06-27T05:54:17.069Z,63.00
2018-06-27T05:56:19.048Z,63.00
2018-06-27T05:58:21.012Z,63.00
2018-06-27T06:00:22.970Z,63.00
2018-06-27T06:02:24.926Z,62.90
2018-06-27T06:04:26.901Z,62.90
2018-06-27T06:06:28.825Z,62.90
2018-06-27T06:08:30.773Z,62.90
2018-06-27T06:10:32.737Z,62.90
2018-06-27T06:12:34.695Z,62.90
2018-06-27T06:14:36.669Z,63.00
2018-06-27T06:16:38.633Z,63.00
2018-06-27T06:18:40.593Z,63.00
2018-06-27T06:20:42.551Z,63.00
2018-06-27T06:22:44.510Z,63.00
2018-06-27T06:24:46.497Z,62.90
2018-06-27T06:26:48.433Z,62.90
2018-06-27T06:28:50.403Z,62.80
2018-06-27T06:30:52.364Z,62.90
2018-06-27T06:32:54.335Z,62.90
2018-06-27T06:34:56.309Z,63.00
2018-06-27T06:36:58.256Z,63.00
2018-06-27T06:39:00.208Z,63.00
2018-06-27T06:41:02.184Z,63.00
2018-06-27T06:43:04.135Z,63.00
2018-06-27T06:45:06.092Z,63.00
2018-06-27T06:47:08.053Z,63.00
2018-06-27T06:49:10.007Z,63.00
2018-06-27T06:51:11.961Z,63.00
2018-06-27T06:53:13.932Z,63.00
2018-06-27T06:55:15.889Z,63.00
2018-06-27T06:57:17.855Z,63.00
2018-06-27T06:59:20.017Z,62.90
2018-06-27T07:01:21.976Z,63.70
2018-06-27T07:03:23.952Z,63.00
2018-06-27T07:05:25.911Z,63.00
2018-06-27T07:07:27.863Z,63.00
2018-06-27T07:09:29.821Z,63.00
2018-06-27T07:11:31.807Z,63.00
2018-06-27T07:13:33.768Z,63.00
2018-06-27T07:15:35.738Z,63.00
2018-06-27T07:17:37.680Z,63.00
2018-06-27T07:19:39.642Z,63.00
2018-06-27T07:21:41.610Z,63.00
2018-06-27T07:23:43.540Z,63.20
2018-06-27T07:25:45.528Z,63.00
2018-06-27T07:27:47.488Z,63.00
2018-06-27T07:29:49.451Z,63.00
2018-06-27T07:31:51.410Z,63.10
2018-06-27T07:33:53.344Z,64.00
2018-06-27T07:35:55.357Z,63.10
2018-06-27T07:37:57.274Z,63.10
2018-06-27T07:39:59.240Z,63.00
2018-06-27T07:42:01.199Z,63.80
2018-06-27T07:44:03.134Z,63.00
2018-06-27T07:46:05.115Z,63.00
2018-06-27T07:50:09.272Z,63.10
2018-06-27T07:52:11.227Z,63.00
2018-06-27T07:54:13.197Z,63.10
2018-06-27T07:56:15.179Z,63.10
2018-06-27T07:58:17.131Z,63.10
2018-06-27T08:00:19.110Z,63.10
2018-06-27T08:02:21.063Z,63.10
2018-06-27T08:06:25.259Z,63.10
2018-06-27T08:08:27.240Z,63.10
2018-06-27T08:10:29.211Z,63.10
2018-06-27T08:12:31.171Z,63.10
2018-06-27T08:14:33.122Z,63.10
2018-06-27T08:16:35.073Z,63.10
2018-06-27T08:18:37.054Z,63.00
2018-06-27T08:20:39.024Z,63.00
2018-06-27T08:22:40.984Z,63.00
2018-06-27T08:24:42.934Z,63.00
2018-06-27T08:26:44.901Z,63.00
2018-06-27T08:28:46.862Z,63.00
2018-06-27T08:30:48.876Z,63.00
2018-06-27T08:32:50.852Z,63.90
2018-06-27T08:34:52.792Z,63.00
2018-06-27T08:36:54.752Z,63.00
2018-06-27T08:38:56.716Z,62.90
2018-06-27T08:40:58.696Z,63.00
2018-06-27T08:43:00.637Z,63.00
2018-06-27T08:45:02.605Z,62.90
2018-06-27T08:47:04.572Z,63.00
2018-06-27T08:49:06.550Z,62.90
2018-06-27T08:51:08.779Z,62.80
2018-06-27T08:55:18.124Z,63.00
2018-06-27T08:57:20.084Z,63.00
2018-06-27T08:59:22.037Z,62.80
2018-06-27T09:01:24.003Z,62.80
2018-06-27T09:03:25.944Z,62.80
2018-06-27T09:05:27.924Z,62.80
2018-06-27T09:07:29.900Z,62.70
2018-06-27T09:09:31.850Z,62.60
2018-06-27T09:11:33.814Z,62.70
2018-06-27T09:13:35.768Z,62.70
2018-06-27T09:15:37.738Z,62.60
2018-06-27T09:17:39.731Z,62.50
2018-06-27T09:19:41.703Z,62.60
2018-06-27T09:21:43.678Z,62.60
2018-06-27T09:23:45.674Z,62.60
2018-06-27T09:25:47.626Z,62.60
2018-06-27T09:27:49.610Z,62.60
2018-06-27T09:31:53.792Z,62.50
2018-06-27T09:33:55.762Z,62.50
2018-06-27T09:35:57.725Z,62.30
2018-06-27T09:37:59.698Z,62.40
2018-06-27T09:40:01.670Z,62.50
2018-06-27T09:42:03.667Z,62.40
2018-06-27T09:44:05.614Z,62.30
2018-06-27T09:46:07.590Z,62.30
2018-06-27T09:48:09.564Z,62.30
2018-06-27T09:50:11.518Z,62.20
2018-06-27T09:52:13.485Z,62.20
2018-06-27T09:54:15.463Z,62.10
2018-06-27T09:56:17.412Z,62.20
2018-06-27T09:58:19.406Z,62.10
2018-06-27T10:00:21.372Z,62.20
2018-06-27T10:02:23.396Z,62.20
2018-06-27T10:04:25.377Z,62.00
2018-06-27T10:06:27.345Z,62.00
2018-06-27T10:08:29.309Z,62.00
2018-06-27T10:10:31.300Z,62.00
2018-06-27T10:12:33.246Z,62.00
2018-06-27T10:14:35.219Z,62.00
2018-06-27T10:16:37.188Z,61.90
2018-06-27T10:18:39.141Z,61.80
2018-06-27T10:20:41.109Z,62.00
2018-06-27T10:22:43.150Z,61.80
2018-06-27T10:24:45.066Z,61.80
2018-06-27T10:26:47.006Z,62.70
2018-06-27T10:28:48.967Z,61.80
2018-06-27T10:30:50.957Z,61.80
2018-06-27T10:32:52.931Z,61.80
2018-06-27T10:34:54.909Z,61.70
2018-06-27T10:36:57.220Z,61.80
2018-06-27T10:38:59.179Z,61.70
2018-06-27T10:41:01.149Z,61.70
2018-06-27T10:43:03.104Z,61.70
2018-06-27T10:45:05.100Z,61.70
2018-06-27T10:47:07.049Z,61.70
2018-06-27T10:49:09.019Z,61.70
2018-06-27T10:51:10.994Z,61.70
2018-06-27T10:53:12.957Z,61.70
2018-06-27T10:55:14.935Z,61.70
2018-06-27T10:57:16.897Z,61.70
2018-06-27T10:59:18.861Z,61.70
2018-06-27T11:01:20.845Z,61.70
2018-06-27T11:03:22.830Z,62.50
2018-06-27T11:05:24.820Z,61.50
2018-06-27T11:07:26.800Z,61.60
2018-06-27T11:09:28.737Z,61.70
2018-06-27T11:11:30.706Z,61.60
2018-06-27T11:13:32.658Z,61.70
2018-06-27T11:15:34.631Z,61.70
2018-06-27T11:17:36.595Z,61.70
2018-06-27T11:21:40.761Z,61.60
2018-06-27T11:23:42.713Z,61.50
2018-06-27T11:25:44.683Z,61.50
2018-06-27T11:27:46.643Z,61.50
2018-06-27T11:29:48.614Z,61.40
2018-06-27T11:31:50.608Z,61.40
2018-06-27T11:33:52.543Z,61.40
2018-06-27T11:35:54.528Z,61.40
2018-06-27T11:37:56.495Z,61.40
2018-06-27T11:39:58.467Z,61.50
2018-06-27T11:42:00.442Z,61.50
2018-06-27T11:44:02.424Z,62.30
2018-06-27T11:46:04.375Z,61.20
2018-06-27T11:48:06.359Z,61.30
2018-06-27T11:50:08.315Z,61.20
2018-06-27T11:52:10.293Z,61.30
2018-06-27T11:54:12.271Z,61.30
2018-06-27T11:56:14.226Z,61.50
2018-06-27T11:58:16.197Z,61.50
2018-06-27T12:00:18.143Z,61.50
2018-06-27T12:02:20.099Z,61.40
2018-06-27T12:04:22.080Z,61.40
2018-06-27T12:06:24.029Z,61.30
2018-06-27T12:08:26.024Z,61.30
2018-06-27T12:10:27.982Z,61.40
2018-06-27T12:12:29.947Z,61.50
2018-06-27T12:14:31.927Z,61.50
2018-06-27T12:16:33.882Z,61.50
2018-06-27T12:18:35.862Z,61.50
2018-06-27T12:20:37.817Z,61.50
2018-06-27T12:22:39.777Z,61.50
2018-06-27T12:24:41.739Z,61.50
2018-06-27T12:26:43.736Z,61.50
2018-06-27T12:28:45.687Z,61.50
2018-06-27T12:30:47.650Z,61.40
2018-06-27T12:32:49.641Z,61.40
2018-06-27T12:34:51.626Z,61.30
2018-06-27T12:36:53.577Z,61.50
2018-06-27T12:38:55.544Z,61.40
2018-06-27T12:40:57.520Z,61.40
2018-06-27T12:42:59.470Z,61.30
2018-06-27T12:45:01.429Z,61.30
2018-06-27T12:47:03.398Z,61.40
2018-06-27T12:49:05.347Z,61.40
2018-06-27T12:51:07.310Z,61.40
2018-06-27T12:53:09.270Z,61.50
2018-06-27T12:55:11.258Z,61.40
2018-06-27T12:57:13.224Z,61.30
2018-06-27T12:59:15.178Z,62.30
2018-06-27T13:01:17.137Z,61.40
2018-06-27T13:03:19.117Z,61.30
2018-06-27T13:05:21.072Z,61.40
2018-06-27T13:07:23.022Z,61.50
2018-06-27T13:09:25.018Z,61.50
2018-06-27T13:11:26.992Z,61.50
2018-06-27T13:13:28.947Z,61.50
2018-06-27T13:15:30.928Z,61.50
2018-06-27T13:17:32.878Z,61.40
2018-06-27T13:19:34.862Z,61.30
2018-06-27T13:21:36.814Z,61.30
2018-06-27T13:23:38.740Z,61.40
2018-06-27T13:25:40.716Z,61.30
2018-06-27T13:27:42.682Z,61.30
2018-06-27T13:29:44.654Z,61.20
2018-06-27T13:31:46.600Z,61.20
2018-06-27T13:33:48.572Z,61.30
2018-06-27T13:35:50.552Z,61.30
2018-06-27T13:37:52.526Z,61.30
2018-06-27T13:39:54.498Z,61.30
2018-06-27T13:41:56.458Z,61.30
2018-06-27T13:43:58.423Z,61.30
2018-06-27T13:46:00.418Z,61.30
2018-06-27T13:48:02.393Z,61.20
2018-06-27T13:50:04.396Z,61.20
2018-06-27T13:52:06.332Z,61.20
2018-06-27T13:54:08.279Z,61.30
2018-06-27T13:56:10.284Z,61.30
2018-06-27T13:58:12.241Z,61.20
2018-06-27T14:00:14.222Z,61.30
2018-06-27T14:02:16.175Z,61.20
2018-06-27T14:04:18.215Z,61.30
2018-06-27T14:06:20.171Z,61.40
2018-06-27T14:08:22.130Z,61.20
2018-06-27T14:10:24.238Z,61.30
2018-06-27T14:12:26.185Z,61.30
2018-06-27T14:14:28.156Z,61.30
2018-06-27T14:16:30.468Z,61.30
2018-06-27T14:18:32.406Z,61.30
2018-06-27T14:20:34.374Z,61.30
2018-06-27T14:22:36.332Z,61.30
2018-06-27T14:24:38.282Z,62.30
2018-06-27T14:26:40.250Z,61.30
2018-06-27T14:28:42.226Z,61.30
2018-06-27T14:30:44.184Z,61.30
2018-06-27T14:32:46.129Z,61.40
2018-06-27T14:34:48.075Z,61.40
2018-06-27T14:36:50.043Z,61.40
2018-06-27T14:38:52.008Z,61.40
2018-06-27T14:40:53.984Z,61.30
2018-06-27T14:42:55.953Z,61.40
2018-06-27T14:44:57.911Z,62.30
2018-06-27T14:46:59.884Z,61.40
2018-06-27T14:49:01.939Z,61.50
2018-06-27T14:51:03.900Z,61.40
2018-06-27T14:53:05.857Z,61.40
2018-06-27T14:55:07.819Z,61.40
2018-06-27T14:57:09.786Z,61.30
2018-06-27T14:59:11.787Z,61.40
2018-06-27T15:01:13.759Z,61.50
2018-06-27T15:03:15.720Z,61.50
2018-06-27T15:05:17.674Z,61.50
2018-06-27T15:07:19.643Z,61.50
2018-06-27T15:09:21.591Z,61.50
2018-06-27T15:11:23.565Z,61.70
2018-06-27T15:13:25.575Z,61.50
2018-06-27T15:15:27.550Z,61.50
2018-06-27T15:17:29.538Z,61.50
2018-06-27T15:19:31.499Z,61.50
2018-06-27T15:21:33.455Z,61.50
2018-06-27T15:23:35.528Z,61.50
2018-06-27T15:25:37.404Z,61.50
2018-06-27T15:27:39.373Z,61.40
2018-06-27T15:29:41.351Z,61.40
2018-06-27T15:31:43.298Z,61.40
2018-06-27T15:33:45.265Z,61.40
2018-06-27T15:35:47.245Z,61.30
2018-06-27T15:37:49.212Z,61.40
2018-06-27T15:39:51.175Z,61.50
2018-06-27T15:41:53.140Z,61.40
2018-06-27T15:43:55.106Z,61.40
2018-06-27T15:45:57.107Z,61.50
2018-06-27T15:47:59.055Z,61.30
2018-06-27T15:50:01.022Z,61.30
2018-06-27T15:52:02.982Z,61.30
2018-06-27T15:54:04.937Z,61.40
2018-06-27T15:56:06.898Z,61.40
2018-06-27T15:58:08.862Z,61.40
2018-06-27T16:00:10.818Z,61.40
2018-06-27T16:02:12.781Z,61.00
2018-06-27T16:04:14.751Z,61.30
2018-06-27T16:06:16.710Z,61.30
2018-06-27T16:08:18.677Z,61.30
2018-06-27T16:10:20.630Z,61.30
2018-06-27T16:12:22.590Z,61.30
2018-06-27T16:14:24.547Z,61.30
2018-06-27T16:16:26.508Z,61.30
2018-06-27T16:18:28.481Z,61.30
2018-06-27T16:22:32.653Z,61.40
2018-06-27T16:24:34.629Z,61.40
2018-06-27T16:26:36.601Z,61.50
2018-06-27T16:28:38.558Z,61.50
2018-06-27T16:30:40.527Z,61.50
2018-06-27T16:32:42.494Z,61.50
2018-06-27T16:34:44.458Z,61.50
2018-06-27T16:36:46.425Z,61.50
2018-06-27T16:38:48.389Z,61.40
2018-06-27T16:40:50.363Z,61.40
2018-06-27T16:42:52.374Z,61.40
2018-06-27T16:44:54.325Z,61.40
2018-06-27T16:46:56.300Z,61.50
2018-06-27T16:48:58.263Z,61.50
2018-06-27T16:51:00.328Z,62.30
2018-06-27T16:53:02.171Z,61.50
2018-06-27T16:55:04.137Z,61.40
2018-06-27T16:57:06.148Z,61.50
2018-06-27T16:59:08.079Z,61.40
2018-06-27T17:01:10.136Z,61.40
2018-06-27T17:03:12.021Z,61.40
2018-06-27T17:05:13.995Z,61.40
2018-06-27T17:07:15.954Z,61.50
2018-06-27T17:09:17.933Z,61.40
2018-06-27T17:11:19.885Z,61.50
2018-06-27T17:13:21.867Z,61.50
2018-06-27T17:15:23.829Z,61.40
2018-06-27T17:17:25.785Z,62.30
2018-06-27T17:19:27.786Z,61.50
2018-06-27T17:21:29.723Z,61.50
2018-06-27T17:23:31.701Z,61.50
2018-06-27T17:25:33.669Z,61.50
2018-06-27T17:27:35.612Z,61.60
2018-06-27T17:29:37.596Z,61.50
2018-06-27T17:31:39.594Z,61.60
2018-06-27T17:33:41.544Z,61.60
2018-06-27T17:35:43.492Z,61.60
2018-06-27T17:37:45.455Z,61.60
2018-06-27T17:39:47.412Z,61.70
2018-06-27T17:41:49.388Z,61.60
2018-06-27T17:43:51.355Z,61.70
2018-06-27T17:45:53.318Z,62.50
2018-06-27T17:47:55.274Z,61.70
2018-06-27T17:49:57.256Z,61.70
2018-06-27T17:51:59.230Z,61.70
2018-06-27T17:54:01.222Z,61.70
2018-06-27T17:56:03.192Z,61.70
2018-06-27T17:58:05.175Z,61.70
2018-06-27T18:00:07.146Z,61.80
2018-06-27T18:02:09.093Z,61.70
2018-06-27T18:04:11.065Z,61.70
2018-06-27T18:06:13.033Z,61.70
2018-06-27T18:08:15.009Z,61.80
2018-06-27T18:10:16.972Z,61.80
2018-06-27T18:12:18.936Z,61.80
2018-06-27T18:14:20.895Z,61.80
2018-06-27T18:16:22.881Z,61.80
2018-06-27T18:20:27.168Z,61.80
2018-06-27T18:22:29.104Z,61.80
2018-06-27T18:24:31.057Z,61.70
2018-06-27T18:26:33.035Z,61.80
2018-06-27T18:28:35.023Z,61.80
2018-06-27T18:30:36.999Z,61.80
2018-06-27T18:32:38.953Z,61.70
2018-06-27T18:34:40.929Z,61.80
2018-06-27T18:36:42.912Z,61.70
2018-06-27T18:38:44.907Z,61.70
2018-06-27T18:40:46.877Z,61.80
2018-06-27T18:42:48.853Z,62.70
2018-06-27T18:44:50.823Z,61.80
2018-06-27T18:46:52.793Z,61.80
2018-06-27T18:48:54.756Z,61.80
2018-06-27T18:50:56.775Z,61.30
2018-06-27T18:52:58.718Z,61.80
2018-06-27T18:55:00.695Z,61.80
2018-06-27T18:57:02.696Z,61.80
2018-06-27T18:59:04.647Z,61.80
2018-06-27T19:01:06.634Z,61.80
2018-06-27T19:03:08.596Z,61.80
2018-06-27T19:05:10.566Z,61.90
2018-06-27T19:07:12.516Z,61.90
2018-06-27T19:09:14.477Z,61.80
2018-06-27T19:11:16.433Z,61.90
2018-06-27T19:13:18.385Z,61.90
2018-06-27T19:15:20.391Z,62.00
2018-06-27T19:17:22.344Z,62.00
2018-06-27T19:19:24.308Z,62.00
2018-06-27T19:21:26.297Z,62.00
2018-06-27T19:23:28.250Z,62.00
2018-06-27T19:25:30.223Z,62.00
2018-06-27T19:27:32.173Z,62.00
2018-06-27T19:29:34.128Z,62.10
2018-06-27T19:31:36.119Z,62.20
2018-06-27T19:33:38.113Z,62.00
2018-06-27T19:35:40.086Z,62.10
2018-06-27T19:37:42.040Z,62.00
2018-06-27T19:39:43.999Z,62.10
2018-06-27T19:43:48.247Z,62.10
2018-06-27T19:45:50.214Z,62.10
2018-06-27T19:47:52.176Z,62.10
2018-06-27T19:49:54.129Z,62.20
2018-06-27T19:51:56.097Z,62.10
2018-06-27T19:53:58.065Z,62.10
2018-06-27T19:56:00.028Z,62.20
2018-06-27T19:58:02.000Z,62.10
2018-06-27T20:00:03.953Z,62.10
2018-06-27T20:02:05.955Z,62.20
2018-06-27T20:04:07.888Z,62.20
2018-06-27T20:06:09.900Z,62.20
2018-06-27T20:08:11.878Z,62.20
2018-06-27T20:10:13.907Z,62.20
2018-06-27T20:12:15.832Z,62.20
2018-06-27T20:14:17.862Z,62.20
2018-06-27T20:16:19.788Z,62.20
2018-06-27T20:18:21.783Z,62.20
2018-06-27T20:20:23.755Z,62.30
2018-06-27T20:24:27.951Z,62.20
2018-06-27T20:26:29.917Z,62.20
2018-06-27T20:28:31.919Z,62.30
2018-06-27T20:30:33.869Z,62.20
2018-06-27T20:32:35.845Z,62.30
2018-06-27T20:34:37.825Z,62.30
2018-06-27T20:36:39.814Z,62.30
2018-06-27T20:38:41.773Z,62.20
2018-06-27T20:40:43.739Z,62.30
2018-06-27T20:42:45.731Z,62.30
2018-06-27T20:44:47.683Z,62.30
2018-06-27T20:46:49.665Z,62.30
2018-06-27T20:48:51.629Z,62.30
2018-06-27T20:50:53.589Z,62.30
2018-06-27T20:52:55.572Z,62.30
2018-06-27T20:54:57.527Z,62.30
2018-06-27T20:56:59.481Z,62.30
2018-06-27T20:59:01.459Z,62.30
2018-06-27T21:01:03.413Z,62.30
2018-06-27T21:03:05.383Z,62.30
2018-06-27T21:05:07.344Z,62.30
2018-06-27T21:07:09.300Z,62.30
2018-06-27T21:09:11.364Z,62.30
2018-06-27T21:11:13.319Z,62.30
2018-06-27T21:13:15.289Z,62.30
2018-06-27T21:15:17.272Z,62.30
2018-06-27T21:17:19.231Z,62.30
2018-06-27T21:19:21.205Z,62.30
2018-06-27T21:21:23.179Z,62.30
2018-06-27T21:23:25.135Z,62.30
2018-06-27T21:25:27.122Z,62.30
2018-06-27T21:27:29.069Z,62.30
2018-06-27T21:29:31.038Z,62.40
2018-06-27T21:31:33.019Z,62.30
2018-06-27T21:33:34.968Z,62.50
2018-06-27T21:35:36.923Z,62.40
2018-06-27T21:37:38.888Z,62.50
2018-06-27T21:39:40.856Z,62.50
2018-06-27T21:41:42.818Z,62.30
2018-06-27T21:43:44.788Z,62.40
2018-06-27T21:45:46.752Z,62.40
2018-06-27T21:47:48.722Z,62.40
2018-06-27T21:49:50.674Z,62.40
2018-06-27T21:51:52.657Z,62.00
2018-06-27T21:53:54.620Z,62.40
2018-06-27T21:55:56.592Z,62.50
2018-06-27T21:57:58.560Z,62.40
2018-06-27T22:00:00.510Z,62.40
2018-06-27T22:02:02.478Z,62.40
2018-06-27T22:04:04.462Z,62.30
2018-06-27T22:06:06.426Z,63.30
2018-06-27T22:08:09.392Z,62.50
2018-06-27T22:10:11.338Z,62.30
2018-06-27T22:12:13.275Z,62.30
2018-06-27T22:14:15.255Z,62.40
2018-06-27T22:16:17.236Z,62.30
2018-06-27T22:18:19.229Z,62.30
2018-06-27T22:20:21.193Z,62.30
2018-06-27T22:22:23.145Z,62.40
2018-06-27T22:24:25.106Z,62.40
2018-06-27T22:26:27.083Z,62.40
2018-06-27T22:28:29.018Z,62.30
2018-06-27T22:30:30.982Z,62.30
2018-06-27T22:32:33.047Z,62.50
2018-06-27T22:34:35.023Z,62.30
2018-06-27T22:36:36.973Z,62.50
2018-06-27T22:38:38.952Z,62.50
2018-06-27T22:40:40.904Z,62.30
2018-06-27T22:42:42.862Z,62.30
2018-06-27T22:44:44.820Z,62.30
2018-06-27T22:46:46.782Z,62.30
2018-06-27T22:48:48.756Z,62.30
2018-06-27T22:50:50.724Z,62.30
2018-06-27T22:52:52.680Z,62.40
2018-06-27T22:54:54.671Z,62.30
2018-06-27T22:56:56.632Z,62.30
2018-06-27T22:58:58.593Z,62.30
2018-06-27T23:03:02.814Z,62.40
2018-06-27T23:05:04.796Z,62.30
2018-06-27T23:07:06.764Z,62.40
2018-06-27T23:09:08.730Z,62.30
2018-06-27T23:11:10.711Z,62.30
2018-06-27T23:13:12.636Z,62.30
2018-06-27T23:15:14.722Z,62.30
2018-06-27T23:19:19.007Z,62.30
2018-06-27T23:21:20.920Z,62.30
2018-06-27T23:23:22.875Z,62.30
2018-06-27T23:25:24.850Z,62.30
2018-06-27T23:27:26.815Z,62.30
2018-06-27T23:29:28.780Z,62.30
2018-06-27T23:31:30.747Z,62.40
2018-06-27T23:33:32.703Z,62.30
2018-06-27T23:35:34.746Z,62.30
2018-06-27T23:37:36.695Z,62.30
2018-06-27T23:39:38.654Z,62.30
2018-06-27T23:41:40.623Z,62.30
2018-06-27T23:43:42.597Z,62.30
2018-06-27T23:45:44.587Z,62.30
2018-06-27T23:47:46.547Z,62.30
2018-06-27T23:49:48.497Z,62.50
2018-06-27T23:51:50.451Z,62.30
2018-06-27T23:53:52.422Z,62.30
2018-06-27T23:55:54.383Z,62.40
2018-06-27T23:57:56.349Z,62.30
2018-06-27T23:59:58.291Z,62.30
